sensor_id;sensor_type;location;lat;lon;timestamp;pressure;altitude;pressure_sealevel;temperature;humidity
61318;BME280;47201;40.428;-8.436;2023-07-08T00:01:28;100697.06;;;18.97;100.00
61318;BME280;47201;40.428;-8.436;2023-07-08T00:03:28;100698.03;;;18.94;100.00
61318;BME280;47201;40.428;-8.436;2023-07-08T00:05:29;100693.72;;;18.90;100.00
61318;BME280;47201;40.428;-8.436;2023-07-08T00:07:30;100690.25;;;18.88;100.00
61318;BME280;47201;40.428;-8.436;2023-07-08T00:09:30;100687.69;;;18.86;100.00
61318;BME280;47201;40.428;-8.436;2023-07-08T00:11:31;100686.00;;;18.84;100.00
61318;BME280;47201;40.428;-8.436;2023-07-08T00:13:32;100680.78;;;18.82;100.00
61318;BME280;47201;40.428;-8.436;2023-07-08T00:15:32;100679.91;;;18.82;100.00
61318;BME280;47201;40.428;-8.436;2023-07-08T00:17:33;100694.78;;;18.86;100.00
61318;BME280;47201;40.428;-8.436;2023-07-08T00:19:34;100689.41;;;18.87;100.00
61318;BME280;47201;40.428;-8.436;2023-07-08T00:21:34;100697.25;;;18.91;100.00
61318;BME280;47201;40.428;-8.436;2023-07-08T00:23:35;100689.41;;;18.87;100.00
61318;BME280;47201;40.428;-8.436;2023-07-08T00:25:37;100689.50;;;18.84;100.00
61318;BME280;47201;40.428;-8.436;2023-07-08T00:27:38;100694.94;;;18.81;100.00
61318;BME280;47201;40.428;-8.436;2023-07-08T00:29:39;100695.94;;;18.77;100.00
61318;BME280;47201;40.428;-8.436;2023-07-08T00:31:39;100688.13;;;18.74;100.00
61318;BME280;47201;40.428;-8.436;2023-07-08T00:33:40;100691.69;;;18.73;100.00
61318;BME280;47201;40.428;-8.436;2023-07-08T00:35:42;100689.91;;;18.74;100.00
61318;BME280;47201;40.428;-8.436;2023-07-08T00:37:45;100691.69;;;18.73;100.00
61318;BME280;47201;40.428;-8.436;2023-07-08T00:39:47;100693.44;;;18.74;100.00
61318;BME280;47201;40.428;-8.436;2023-07-08T00:41:48;100689.75;;;18.78;100.00
61318;BME280;47201;40.428;-8.436;2023-07-08T00:43:55;100679.16;;;18.78;100.00
61318;BME280;47201;40.428;-8.436;2023-07-08T00:48:34;100679.28;;;18.75;100.00
61318;BME280;47201;40.428;-8.436;2023-07-08T00:50:35;100681.03;;;18.75;100.00
61318;BME280;47201;40.428;-8.436;2023-07-08T00:52:36;100685.25;;;18.80;100.00
61318;BME280;47201;40.428;-8.436;2023-07-08T00:54:37;100684.28;;;18.83;100.00
61318;BME280;47201;40.428;-8.436;2023-07-08T00:56:45;100678.53;;;18.97;100.00
61318;BME280;47201;40.428;-8.436;2023-07-08T00:58:57;100678.56;;;18.95;100.00
61318;BME280;47201;40.428;-8.436;2023-07-08T01:01:01;100676.66;;;18.99;100.00
61318;BME280;47201;40.428;-8.436;2023-07-08T01:03:04;100678.38;;;19.00;100.00
61318;BME280;47201;40.428;-8.436;2023-07-08T01:05:09;100673.75;;;19.07;100.00
61318;BME280;47201;40.428;-8.436;2023-07-08T01:07:12;100670.19;;;19.08;100.00
61318;BME280;47201;40.428;-8.436;2023-07-08T01:09:15;100661.13;;;19.13;100.00
61318;BME280;47201;40.428;-8.436;2023-07-08T01:11:16;100666.53;;;19.10;100.00
61318;BME280;47201;40.428;-8.436;2023-07-08T01:13:17;100657.75;;;19.10;100.00
61318;BME280;47201;40.428;-8.436;2023-07-08T01:15:18;100663.03;;;19.10;100.00
61318;BME280;47201;40.428;-8.436;2023-07-08T01:17:22;100653.19;;;19.13;100.00
61318;BME280;47201;40.428;-8.436;2023-07-08T01:19:23;100653.94;;;19.17;100.00
61318;BME280;47201;40.428;-8.436;2023-07-08T01:23:35;100652.63;;;19.27;100.00
61318;BME280;47201;40.428;-8.436;2023-07-08T01:25:37;100647.09;;;19.33;100.00
61318;BME280;47201;40.428;-8.436;2023-07-08T01:27:40;100638.16;;;19.36;100.00
61318;BME280;47201;40.428;-8.436;2023-07-08T01:29:43;100636.50;;;19.33;100.00
61318;BME280;47201;40.428;-8.436;2023-07-08T01:31:44;100643.84;;;19.27;100.00
61318;BME280;47201;40.428;-8.436;2023-07-08T01:33:49;100641.28;;;19.24;100.00
61318;BME280;47201;40.428;-8.436;2023-07-08T01:35:52;100645.78;;;19.22;100.00
61318;BME280;47201;40.428;-8.436;2023-07-08T01:37:56;100649.38;;;19.21;100.00
61318;BME280;47201;40.428;-8.436;2023-07-08T01:40:12;100646.09;;;19.14;100.00
61318;BME280;47201;40.428;-8.436;2023-07-08T01:42:14;100653.22;;;19.12;100.00
61318;BME280;47201;40.428;-8.436;2023-07-08T01:44:32;100645.28;;;19.12;100.00
61318;BME280;47201;40.428;-8.436;2023-07-08T01:46:33;100651.47;;;19.12;100.00
61318;BME280;47201;40.428;-8.436;2023-07-08T01:48:37;100645.09;;;19.16;100.00
61318;BME280;47201;40.428;-8.436;2023-07-08T01:50:43;100649.31;;;19.22;100.00
61318;BME280;47201;40.428;-8.436;2023-07-08T01:52:44;100650.16;;;19.23;100.00
61318;BME280;47201;40.428;-8.436;2023-07-08T01:54:54;100652.47;;;19.32;100.00
61318;BME280;47201;40.428;-8.436;2023-07-08T01:56:56;100655.03;;;19.33;100.00
61318;BME280;47201;40.428;-8.436;2023-07-08T01:58:58;100652.28;;;19.37;100.00
61318;BME280;47201;40.428;-8.436;2023-07-08T02:00:59;100657.47;;;19.40;100.00
61318;BME280;47201;40.428;-8.436;2023-07-08T02:03:00;100666.91;;;19.47;100.00
61318;BME280;47201;40.428;-8.436;2023-07-08T02:05:01;100662.47;;;19.47;100.00
61318;BME280;47201;40.428;-8.436;2023-07-08T02:07:02;100664.06;;;19.52;100.00
61318;BME280;47201;40.428;-8.436;2023-07-08T02:09:03;100659.56;;;19.54;100.00
61318;BME280;47201;40.428;-8.436;2023-07-08T02:11:05;100655.06;;;19.56;100.00
61318;BME280;47201;40.428;-8.436;2023-07-08T02:13:06;100655.19;;;19.53;100.00
61318;BME280;47201;40.428;-8.436;2023-07-08T02:15:08;100654.16;;;19.57;100.00
61318;BME280;47201;40.428;-8.436;2023-07-08T02:17:09;100645.50;;;19.52;100.00
61318;BME280;47201;40.428;-8.436;2023-07-08T02:19:10;100647.94;;;19.58;100.00
61318;BME280;47201;40.428;-8.436;2023-07-08T02:21:12;100649.78;;;19.56;100.00
61318;BME280;47201;40.428;-8.436;2023-07-08T02:23:13;100653.09;;;19.61;100.00
61318;BME280;47201;40.428;-8.436;2023-07-08T02:25:14;100645.31;;;19.56;100.00
61318;BME280;47201;40.428;-8.436;2023-07-08T02:27:16;100645.47;;;19.53;100.00
61318;BME280;47201;40.428;-8.436;2023-07-08T02:29:17;100646.31;;;19.54;100.00
61318;BME280;47201;40.428;-8.436;2023-07-08T02:31:17;100641.63;;;19.60;100.00
61318;BME280;47201;40.428;-8.436;2023-07-08T02:33:18;100646.50;;;19.71;100.00
61318;BME280;47201;40.428;-8.436;2023-07-08T02:35:19;100640.66;;;19.63;100.00
61318;BME280;47201;40.428;-8.436;2023-07-08T02:37:19;100639.84;;;19.61;100.00
61318;BME280;47201;40.428;-8.436;2023-07-08T02:39:20;100639.72;;;19.64;100.00
61318;BME280;47201;40.428;-8.436;2023-07-08T02:41:21;100642.47;;;19.61;100.00
61318;BME280;47201;40.428;-8.436;2023-07-08T02:43:21;100648.78;;;19.58;100.00
61318;BME280;47201;40.428;-8.436;2023-07-08T02:45:22;100640.09;;;19.55;100.00
61318;BME280;47201;40.428;-8.436;2023-07-08T02:47:23;100643.81;;;19.50;100.00
61318;BME280;47201;40.428;-8.436;2023-07-08T02:49:24;100651.00;;;19.47;100.00
61318;BME280;47201;40.428;-8.436;2023-07-08T02:51:24;100644.81;;;19.46;100.00
61318;BME280;47201;40.428;-8.436;2023-07-08T02:53:25;100649.28;;;19.46;100.00
61318;BME280;47201;40.428;-8.436;2023-07-08T02:55:25;100646.63;;;19.46;100.00
61318;BME280;47201;40.428;-8.436;2023-07-08T02:57:26;100643.16;;;19.44;100.00
61318;BME280;47201;40.428;-8.436;2023-07-08T02:59:27;100653.69;;;19.45;100.00
61318;BME280;47201;40.428;-8.436;2023-07-08T03:01:31;100645.72;;;19.47;100.00
61318;BME280;47201;40.428;-8.436;2023-07-08T03:03:34;100646.38;;;19.52;100.00
61318;BME280;47201;40.428;-8.436;2023-07-08T03:05:35;100643.84;;;19.49;100.00
61318;BME280;47201;40.428;-8.436;2023-07-08T03:07:36;100649.88;;;19.53;100.00
61318;BME280;47201;40.428;-8.436;2023-07-08T03:09:38;100651.69;;;19.52;100.00
61318;BME280;47201;40.428;-8.436;2023-07-08T03:11:42;100642.19;;;19.46;100.00
61318;BME280;47201;40.428;-8.436;2023-07-08T03:13:43;100645.56;;;19.50;100.00
61318;BME280;47201;40.428;-8.436;2023-07-08T03:15:44;100639.66;;;19.43;100.00
61318;BME280;47201;40.428;-8.436;2023-07-08T03:17:46;100640.63;;;19.41;100.00
61318;BME280;47201;40.428;-8.436;2023-07-08T03:19:47;100628.38;;;19.38;100.00
61318;BME280;47201;40.428;-8.436;2023-07-08T03:21:47;100626.69;;;19.36;100.00
61318;BME280;47201;40.428;-8.436;2023-07-08T03:23:49;100637.53;;;19.29;100.00
61318;BME280;47201;40.428;-8.436;2023-07-08T03:25:51;100633.09;;;19.30;100.00
61318;BME280;47201;40.428;-8.436;2023-07-08T03:27:53;100629.66;;;19.28;100.00
61318;BME280;47201;40.428;-8.436;2023-07-08T03:29:56;100640.03;;;19.34;100.00
61318;BME280;47201;40.428;-8.436;2023-07-08T03:31:57;100632.75;;;19.39;100.00
61318;BME280;47201;40.428;-8.436;2023-07-08T03:33:58;100627.19;;;19.45;100.00
61318;BME280;47201;40.428;-8.436;2023-07-08T03:35:59;100638.69;;;19.46;100.00
61318;BME280;47201;40.428;-8.436;2023-07-08T03:38:00;100638.53;;;19.49;100.00
61318;BME280;47201;40.428;-8.436;2023-07-08T03:40:00;100634.84;;;19.53;100.00
61318;BME280;47201;40.428;-8.436;2023-07-08T03:42:01;100632.13;;;19.55;100.00
61318;BME280;47201;40.428;-8.436;2023-07-08T03:44:04;100638.25;;;19.57;100.00
61318;BME280;47201;40.428;-8.436;2023-07-08T03:46:04;100633.72;;;19.59;100.00
61318;BME280;47201;40.428;-8.436;2023-07-08T03:48:05;100635.53;;;19.58;100.00
61318;BME280;47201;40.428;-8.436;2023-07-08T03:50:22;100635.41;;;19.61;100.00
61318;BME280;47201;40.428;-8.436;2023-07-08T03:52:23;100642.47;;;19.61;100.00
61318;BME280;47201;40.428;-8.436;2023-07-08T03:54:26;100636.34;;;19.60;100.00
61318;BME280;47201;40.428;-8.436;2023-07-08T03:56:32;100630.03;;;19.63;100.00
61318;BME280;47201;40.428;-8.436;2023-07-08T03:58:33;100642.31;;;19.65;100.00
61318;BME280;47201;40.428;-8.436;2023-07-08T04:00:33;100639.75;;;19.62;100.00
61318;BME280;47201;40.428;-8.436;2023-07-08T04:02:36;100630.97;;;19.62;100.00
61318;BME280;47201;40.428;-8.436;2023-07-08T04:04:37;100639.84;;;19.61;100.00
61318;BME280;47201;40.428;-8.436;2023-07-08T04:06:38;100639.84;;;19.61;100.00
61318;BME280;47201;40.428;-8.436;2023-07-08T04:08:39;100638.66;;;19.68;100.00
61318;BME280;47201;40.428;-8.436;2023-07-08T04:10:40;100642.84;;;19.74;100.00
61318;BME280;47201;40.428;-8.436;2023-07-08T04:12:41;100641.97;;;19.73;100.00
61318;BME280;47201;40.428;-8.436;2023-07-08T04:14:41;100646.31;;;19.76;100.00
61318;BME280;47201;40.428;-8.436;2023-07-08T04:18:45;100645.41;;;19.77;100.00
61318;BME280;47201;40.428;-8.436;2023-07-08T04:20:46;100650.63;;;19.78;100.00
61318;BME280;47201;40.428;-8.436;2023-07-08T04:22:52;100647.91;;;19.80;100.00
61318;BME280;47201;40.428;-8.436;2023-07-08T04:24:53;100649.63;;;19.81;100.00
61318;BME280;47201;40.428;-8.436;2023-07-08T04:26:54;100655.59;;;19.88;100.00
61318;BME280;47201;40.428;-8.436;2023-07-08T04:28:54;100658.19;;;19.89;100.00
61318;BME280;47201;40.428;-8.436;2023-07-08T04:30:55;100651.94;;;19.90;100.00
61318;BME280;47201;40.428;-8.436;2023-07-08T04:32:56;100659.75;;;19.93;100.00
61318;BME280;47201;40.428;-8.436;2023-07-08T04:34:56;100655.44;;;19.91;100.00
61318;BME280;47201;40.428;-8.436;2023-07-08T04:36:58;100663.59;;;19.86;100.00
61318;BME280;47201;40.428;-8.436;2023-07-08T04:38:59;100661.97;;;19.82;100.00
61318;BME280;47201;40.428;-8.436;2023-07-08T04:41:00;100678.59;;;19.87;100.00
61318;BME280;47201;40.428;-8.436;2023-07-08T04:43:00;100668.06;;;19.86;100.00
61318;BME280;47201;40.428;-8.436;2023-07-08T04:45:01;100676.00;;;19.86;100.00
61318;BME280;47201;40.428;-8.436;2023-07-08T04:47:04;100673.34;;;19.86;100.00
61318;BME280;47201;40.428;-8.436;2023-07-08T04:49:07;100675.94;;;19.87;100.00
61318;BME280;47201;40.428;-8.436;2023-07-08T04:51:09;100668.97;;;19.85;100.00
61318;BME280;47201;40.428;-8.436;2023-07-08T04:53:11;100670.56;;;19.89;100.00
61318;BME280;47201;40.428;-8.436;2023-07-08T04:55:13;100671.50;;;19.88;100.00
61318;BME280;47201;40.428;-8.436;2023-07-08T04:57:13;100677.78;;;19.85;100.00
61318;BME280;47201;40.428;-8.436;2023-07-08T04:59:18;100674.84;;;19.93;100.00
61318;BME280;47201;40.428;-8.436;2023-07-08T05:01:19;100668.59;;;19.94;100.00
61318;BME280;47201;40.428;-8.436;2023-07-08T05:03:19;100676.41;;;19.97;100.00
61318;BME280;47201;40.428;-8.436;2023-07-08T05:05:20;100678.97;;;20.00;100.00
61318;BME280;47201;40.428;-8.436;2023-07-08T05:07:21;100680.81;;;19.98;100.00
61318;BME280;47201;40.428;-8.436;2023-07-08T05:09:22;100680.94;;;19.95;100.00
61318;BME280;47201;40.428;-8.436;2023-07-08T05:11:26;100683.59;;;19.95;100.00
61318;BME280;47201;40.428;-8.436;2023-07-08T05:13:27;100685.28;;;19.96;100.00
61318;BME280;47201;40.428;-8.436;2023-07-08T05:15:28;100681.97;;;19.91;100.00
61318;BME280;47201;40.428;-8.436;2023-07-08T05:17:28;100687.44;;;19.88;100.00
61318;BME280;47201;40.428;-8.436;2023-07-08T05:19:29;100682.97;;;19.88;100.00
61318;BME280;47201;40.428;-8.436;2023-07-08T05:21:31;100686.47;;;19.89;100.00
61318;BME280;47201;40.428;-8.436;2023-07-08T05:23:34;100681.41;;;19.82;100.00
61318;BME280;47201;40.428;-8.436;2023-07-08T05:25:35;100689.09;;;19.90;100.00
61318;BME280;47201;40.428;-8.436;2023-07-08T05:27:35;100693.41;;;19.93;100.00
61318;BME280;47201;40.428;-8.436;2023-07-08T05:29:36;100695.78;;;19.99;100.00
61318;BME280;47201;40.428;-8.436;2023-07-08T05:31:37;100685.13;;;20.01;100.00
61318;BME280;47201;40.428;-8.436;2023-07-08T05:33:37;100684.25;;;20.00;100.00
61318;BME280;47201;40.428;-8.436;2023-07-08T05:35:38;100678.78;;;20.05;100.00
61318;BME280;47201;40.428;-8.436;2023-07-08T05:37:39;100687.72;;;20.02;100.00
61318;BME280;47201;40.428;-8.436;2023-07-08T05:39:40;100690.38;;;20.02;100.00
61318;BME280;47201;40.428;-8.436;2023-07-08T05:41:40;100693.03;;;20.02;100.00
61318;BME280;47201;40.428;-8.436;2023-07-08T05:43:41;100685.84;;;20.04;100.00
61318;BME280;47201;40.428;-8.436;2023-07-08T05:45:42;100689.19;;;20.09;100.00
61318;BME280;47201;40.428;-8.436;2023-07-08T05:47:42;100686.53;;;20.09;100.00
61318;BME280;47201;40.428;-8.436;2023-07-08T05:49:43;100688.84;;;20.17;100.00
61318;BME280;47201;40.428;-8.436;2023-07-08T05:51:44;100693.06;;;20.23;100.00
61318;BME280;47201;40.428;-8.436;2023-07-08T05:53:45;100694.78;;;20.24;100.00
61318;BME280;47201;40.428;-8.436;2023-07-08T05:55:47;100695.56;;;20.26;100.00
61318;BME280;47201;40.428;-8.436;2023-07-08T05:57:48;100694.38;;;20.33;100.00
61318;BME280;47201;40.428;-8.436;2023-07-08T05:59:49;100688.09;;;20.36;100.00
61318;BME280;47201;40.428;-8.436;2023-07-08T06:01:51;100688.88;;;20.38;100.00
61318;BME280;47201;40.428;-8.436;2023-07-08T06:03:51;100696.72;;;20.41;100.00
61318;BME280;47201;40.428;-8.436;2023-07-08T06:05:52;100692.13;;;20.44;100.00
61318;BME280;47201;40.428;-8.436;2023-07-08T06:07:53;100685.22;;;20.40;100.00
61318;BME280;47201;40.428;-8.436;2023-07-08T06:09:53;100691.31;;;20.42;100.00
61318;BME280;47201;40.428;-8.436;2023-07-08T06:11:57;100692.13;;;20.44;100.00
61318;BME280;47201;40.428;-8.436;2023-07-08T06:13:57;100685.09;;;20.43;100.00
61318;BME280;47201;40.428;-8.436;2023-07-08T06:15:58;100691.94;;;20.49;100.00
61318;BME280;47201;40.428;-8.436;2023-07-08T06:17:59;100690.00;;;20.53;100.00
61318;BME280;47201;40.428;-8.436;2023-07-08T06:20:02;100708.41;;;20.57;100.00
61318;BME280;47201;40.428;-8.436;2023-07-08T06:22:03;100707.53;;;20.57;100.00
61318;BME280;47201;40.428;-8.436;2023-07-08T06:24:04;100710.13;;;20.58;100.00
61318;BME280;47201;40.428;-8.436;2023-07-08T06:26:05;100702.00;;;20.61;100.00
61318;BME280;47201;40.428;-8.436;2023-07-08T06:28:06;100709.66;;;20.69;100.00
61318;BME280;47201;40.428;-8.436;2023-07-08T06:30:07;100711.94;;;20.79;100.00
61318;BME280;47201;40.428;-8.436;2023-07-08T06:32:08;100711.00;;;20.80;100.00
61318;BME280;47201;40.428;-8.436;2023-07-08T06:34:09;100715.50;;;20.77;100.00
61318;BME280;47201;40.428;-8.436;2023-07-08T06:36:10;100715.38;;;20.81;100.00
61318;BME280;47201;40.428;-8.436;2023-07-08T06:38:10;100718.69;;;20.86;100.00
61318;BME280;47201;40.428;-8.436;2023-07-08T06:40:11;100715.84;;;20.90;100.00
61318;BME280;47201;40.428;-8.436;2023-07-08T06:42:12;100715.44;;;21.00;100.00
61318;BME280;47201;40.428;-8.436;2023-07-08T06:44:18;100710.25;;;20.97;100.00
61318;BME280;47201;40.428;-8.436;2023-07-08T06:46:19;100714.63;;;20.98;100.00
61318;BME280;47201;40.428;-8.436;2023-07-08T06:48:19;100720.81;;;20.98;100.00
61318;BME280;47201;40.428;-8.436;2023-07-08T06:50:20;100724.94;;;21.05;100.00
61318;BME280;47201;40.428;-8.436;2023-07-08T06:52:21;100719.84;;;21.20;100.00
61318;BME280;47201;40.428;-8.436;2023-07-08T06:54:22;100724.06;;;21.24;100.00
61318;BME280;47201;40.428;-8.436;2023-07-08T06:56:22;100723.31;;;21.22;100.00
61318;BME280;47201;40.428;-8.436;2023-07-08T06:58:23;100738.09;;;21.28;100.00
61318;BME280;47201;40.428;-8.436;2023-07-08T07:00:24;100728.03;;;21.34;100.00
61318;BME280;47201;40.428;-8.436;2023-07-08T07:02:24;100739.19;;;21.43;100.00
61318;BME280;47201;40.428;-8.436;2023-07-08T07:04:25;100738.75;;;21.33;100.00
61318;BME280;47201;40.428;-8.436;2023-07-08T07:06:26;100742.69;;;21.24;100.00
61318;BME280;47201;40.428;-8.436;2023-07-08T07:08:26;100738.56;;;21.17;100.00
61318;BME280;47201;40.428;-8.436;2023-07-08T07:10:27;100745.03;;;21.11;100.00
61318;BME280;47201;40.428;-8.436;2023-07-08T07:12:27;100743.38;;;21.08;100.00
61318;BME280;47201;40.428;-8.436;2023-07-08T07:14:28;100751.63;;;21.02;100.00
61318;BME280;47201;40.428;-8.436;2023-07-08T07:16:29;100742.66;;;21.05;100.00
61318;BME280;47201;40.428;-8.436;2023-07-08T07:18:30;100745.38;;;21.03;100.00
61318;BME280;47201;40.428;-8.436;2023-07-08T07:20:31;100747.75;;;21.10;100.00
61318;BME280;47201;40.428;-8.436;2023-07-08T07:22:31;100748.69;;;21.08;100.00
61318;BME280;47201;40.428;-8.436;2023-07-08T07:24:32;100749.03;;;21.01;100.00
61318;BME280;47201;40.428;-8.436;2023-07-08T07:26:33;100748.53;;;20.92;100.00
61318;BME280;47201;40.428;-8.436;2023-07-08T07:28:34;100749.72;;;20.85;100.00
61318;BME280;47201;40.428;-8.436;2023-07-08T07:30:34;100748.66;;;20.89;100.00
61318;BME280;47201;40.428;-8.436;2023-07-08T07:32:35;100745.00;;;20.92;100.00
61318;BME280;47201;40.428;-8.436;2023-07-08T07:34:36;100750.78;;;21.02;100.00
61318;BME280;47201;40.428;-8.436;2023-07-08T07:36:38;100749.03;;;21.01;100.00
61318;BME280;47201;40.428;-8.436;2023-07-08T07:38:39;100746.66;;;20.95;100.00
61318;BME280;47201;40.428;-8.436;2023-07-08T07:40:40;100751.06;;;20.96;100.00
61318;BME280;47201;40.428;-8.436;2023-07-08T07:42:42;100752.91;;;20.94;100.00
61318;BME280;47201;40.428;-8.436;2023-07-08T07:44:43;100753.03;;;20.90;100.00
61318;BME280;47201;40.428;-8.436;2023-07-08T07:46:44;100757.63;;;20.87;100.00
61318;BME280;47201;40.428;-8.436;2023-07-08T07:48:45;100756.31;;;20.76;100.00
61318;BME280;47201;40.428;-8.436;2023-07-08T07:50:47;100765.44;;;20.69;100.00
61318;BME280;47201;40.428;-8.436;2023-07-08T07:52:48;100768.06;;;20.49;100.00
61318;BME280;47201;40.428;-8.436;2023-07-08T07:54:49;100766.84;;;20.35;100.00
61318;BME280;47201;40.428;-8.436;2023-07-08T07:56:49;100767.38;;;20.23;100.00
61318;BME280;47201;40.428;-8.436;2023-07-08T07:58:50;100773.41;;;20.04;100.00
61318;BME280;47201;40.428;-8.436;2023-07-08T08:00:50;100775.50;;;19.96;100.00
61318;BME280;47201;40.428;-8.436;2023-07-08T08:02:51;100771.94;;;19.97;100.00
61318;BME280;47201;40.428;-8.436;2023-07-08T08:04:52;100773.59;;;20.00;100.00
61318;BME280;47201;40.428;-8.436;2023-07-08T08:06:52;100773.81;;;19.95;100.00
61318;BME280;47201;40.428;-8.436;2023-07-08T08:08:53;100773.84;;;19.93;100.00
61318;BME280;47201;40.428;-8.436;2023-07-08T08:10:53;100770.16;;;19.97;100.00
61318;BME280;47201;40.428;-8.436;2023-07-08T08:12:54;100771.56;;;20.06;100.00
61318;BME280;47201;40.428;-8.436;2023-07-08T08:14:55;100773.19;;;20.10;100.00
61318;BME280;47201;40.428;-8.436;2023-07-08T08:16:55;100771.38;;;20.11;100.00
61318;BME280;47201;40.428;-8.436;2023-07-08T08:18:56;100771.88;;;20.21;100.00
61318;BME280;47201;40.428;-8.436;2023-07-08T08:20:57;100764.81;;;20.20;100.00
61318;BME280;47201;40.428;-8.436;2023-07-08T08:22:57;100772.69;;;20.23;100.00
61318;BME280;47201;40.428;-8.436;2023-07-08T08:24:58;100769.84;;;20.27;100.00
61318;BME280;47201;40.428;-8.436;2023-07-08T08:26:58;100778.09;;;20.42;100.00
61318;BME280;47201;40.428;-8.436;2023-07-08T08:29:00;100782.34;;;20.46;100.00
61318;BME280;47201;40.428;-8.436;2023-07-08T08:31:01;100781.59;;;20.42;100.00
61318;BME280;47201;40.428;-8.436;2023-07-08T08:33:02;100780.13;;;20.35;100.00
61318;BME280;47201;40.428;-8.436;2023-07-08T08:35:04;100782.59;;;20.40;100.00
61318;BME280;47201;40.428;-8.436;2023-07-08T08:37:05;100779.81;;;20.43;100.00
61318;BME280;47201;40.428;-8.436;2023-07-08T08:39:05;100786.97;;;20.41;100.00
61318;BME280;47201;40.428;-8.436;2023-07-08T08:41:14;100791.41;;;20.40;100.00
61318;BME280;47201;40.428;-8.436;2023-07-08T08:43:19;100780.13;;;20.35;100.00
61318;BME280;47201;40.428;-8.436;2023-07-08T08:45:22;100786.34;;;20.34;100.00
61318;BME280;47201;40.428;-8.436;2023-07-08T08:47:37;100785.38;;;20.37;100.00
61318;BME280;47201;40.428;-8.436;2023-07-08T08:49:43;100783.66;;;20.36;100.00
61318;BME280;47201;40.428;-8.436;2023-07-08T08:51:44;100789.09;;;20.33;100.00
61318;BME280;47201;40.428;-8.436;2023-07-08T08:53:45;100792.66;;;20.32;100.00
61318;BME280;47201;40.428;-8.436;2023-07-08T08:55:48;100790.81;;;20.34;100.00
61318;BME280;47201;40.428;-8.436;2023-07-08T08:58:13;100791.41;;;20.40;100.00
61318;BME280;47201;40.428;-8.436;2023-07-08T09:00:27;100804.03;;;20.35;100.00
61318;BME280;47201;40.428;-8.436;2023-07-08T09:02:53;100794.28;;;20.36;100.00
61318;BME280;47201;40.428;-8.436;2023-07-08T09:05:02;100805.63;;;20.39;100.00
61318;BME280;47201;40.428;-8.436;2023-07-08T09:07:13;100808.28;;;20.39;100.00
61318;BME280;47201;40.428;-8.436;2023-07-08T09:09:24;100806.81;;;20.32;100.00
61318;BME280;47201;40.428;-8.436;2023-07-08T09:11:39;100803.91;;;20.38;100.00
61318;BME280;47201;40.428;-8.436;2023-07-08T09:13:41;100805.22;;;20.49;100.00
61318;BME280;47201;40.428;-8.436;2023-07-08T09:15:42;100799.72;;;20.96;100.00
61318;BME280;47201;40.428;-8.436;2023-07-08T09:17:42;100805.50;;;21.46;100.00
61318;BME280;47201;40.428;-8.436;2023-07-08T09:19:54;100811.97;;;21.80;100.00
61318;BME280;47201;40.428;-8.436;2023-07-08T09:22:31;100809.31;;;21.99;100.00
61318;BME280;47201;40.428;-8.436;2023-07-08T09:25:01;100818.38;;;22.31;100.00
61318;BME280;47201;40.428;-8.436;2023-07-08T09:27:03;100820.56;;;22.23;100.00
61318;BME280;47201;40.428;-8.436;2023-07-08T09:29:07;100830.00;;;21.92;100.00
61318;BME280;47201;40.428;-8.436;2023-07-08T09:33:24;100826.97;;;21.22;100.00
61318;BME280;47201;40.428;-8.436;2023-07-08T09:35:28;100831.97;;;21.09;100.00
61318;BME280;47201;40.428;-8.436;2023-07-08T09:37:30;100830.84;;;21.15;100.00
61318;BME280;47201;40.428;-8.436;2023-07-08T09:39:35;100832.53;;;21.36;100.00
61318;BME280;47201;40.428;-8.436;2023-07-08T09:41:36;100839.13;;;21.67;100.00
61318;BME280;47201;40.428;-8.436;2023-07-08T09:43:37;100840.56;;;21.94;100.00
61318;BME280;47201;40.428;-8.436;2023-07-08T09:45:45;100850.25;;;22.33;100.00
61318;BME280;47201;40.428;-8.436;2023-07-08T09:47:46;100849.44;;;23.04;100.00
61318;BME280;47201;40.428;-8.436;2023-07-08T09:49:47;100857.91;;;23.64;100.00
61318;BME280;47201;40.428;-8.436;2023-07-08T09:51:48;100852.28;;;24.34;100.00
61318;BME280;47201;40.428;-8.436;2023-07-08T09:53:50;100858.38;;;25.58;100.00
61318;BME280;47201;40.428;-8.436;2023-07-08T09:55:51;100868.88;;;26.86;95.84
61318;BME280;47201;40.428;-8.436;2023-07-08T09:57:53;100872.09;;;27.45;88.29
61318;BME280;47201;40.428;-8.436;2023-07-08T09:59:59;100878.16;;;26.68;89.28
61318;BME280;47201;40.428;-8.436;2023-07-08T10:02:31;100873.59;;;25.12;99.93
61318;BME280;47201;40.428;-8.436;2023-07-08T10:04:32;100875.03;;;24.25;100.00
61318;BME280;47201;40.428;-8.436;2023-07-08T10:06:34;100875.78;;;23.61;100.00
61318;BME280;47201;40.428;-8.436;2023-07-08T10:08:43;100879.66;;;23.22;100.00
61318;BME280;47201;40.428;-8.436;2023-07-08T10:10:47;100876.53;;;23.12;100.00
61318;BME280;47201;40.428;-8.436;2023-07-08T10:15:24;100871.09;;;23.33;100.00
61318;BME280;47201;40.428;-8.436;2023-07-08T10:17:25;100884.31;;;23.52;100.00
61318;BME280;47201;40.428;-8.436;2023-07-08T10:19:25;100881.13;;;23.61;100.00
61318;BME280;47201;40.428;-8.436;2023-07-08T10:24:07;100885.84;;;23.56;100.00
61318;BME280;47201;40.428;-8.436;2023-07-08T10:26:39;100879.00;;;24.02;100.00
61318;BME280;47201;40.428;-8.436;2023-07-08T10:28:46;100881.91;;;24.77;100.00
61318;BME280;47201;40.428;-8.436;2023-07-08T10:35:35;100893.09;;;27.38;89.30
61318;BME280;47201;40.428;-8.436;2023-07-08T10:40:02;100896.75;;;27.50;87.48
61318;BME280;47201;40.428;-8.436;2023-07-08T10:42:16;100902.31;;;27.21;86.05
61318;BME280;47201;40.428;-8.436;2023-07-08T10:56:23;100900.50;;;24.79;97.27
61318;BME280;47201;40.428;-8.436;2023-07-08T11:01:02;100906.16;;;25.05;90.69